createdAt,value
2019-05-12T00:00:39.079Z,77.80
2019-05-12T00:01:38.797Z,78.62
2019-05-12T00:02:39.473Z,78.21
2019-05-12T00:03:37.783Z,78.21
2019-05-12T00:04:38.522Z,78.11
2019-05-12T00:05:38.332Z,77.69
2019-05-12T00:06:38.670Z,77.80
2019-05-12T00:07:38.177Z,77.90
2019-05-12T00:08:38.134Z,78.41
2019-05-12T00:09:38.696Z,78.52
2019-05-12T00:10:38.639Z,78.66
2019-05-12T00:11:37.936Z,78.45
2019-05-12T00:12:38.462Z,78.97
2019-05-12T00:13:38.545Z,79.38
2019-05-12T00:14:38.170Z,79.07
2019-05-12T00:15:38.498Z,78.86
2019-05-12T00:16:38.380Z,79.07
2019-05-12T00:17:38.662Z,79.17
2019-05-12T00:18:37.789Z,78.86
2019-05-12T00:19:37.757Z,79.38
2019-05-12T00:20:38.492Z,79.27
2019-05-12T00:21:37.679Z,79.03
2019-05-12T00:22:38.164Z,79.69
2019-05-12T00:23:38.192Z,79.07
2019-05-12T00:24:38.314Z,79.07
2019-05-12T00:25:38.582Z,78.86
2019-05-12T00:26:38.272Z,78.66
2019-05-12T00:27:38.599Z,78.14
2019-05-12T00:28:37.687Z,79.07
2019-05-12T00:29:37.809Z,79.21
2019-05-12T00:30:38.697Z,80.30
2019-05-12T00:31:38.285Z,79.62
2019-05-12T00:32:38.445Z,79.93
2019-05-12T00:33:38.475Z,79.72
2019-05-12T00:34:38.547Z,79.83
2019-05-12T00:35:38.046Z,79.62
2019-05-12T00:36:37.964Z,79.72
2019-05-12T00:37:38.113Z,79.62
2019-05-12T00:38:38.209Z,79.83
2019-05-12T00:39:38.219Z,79.52
2019-05-12T00:40:38.834Z,80.24
2019-05-12T00:41:38.656Z,79.72
2019-05-12T00:42:38.156Z,80.24
2019-05-12T00:43:38.187Z,79.83
2019-05-12T00:44:36.269Z,79.45
2019-05-12T00:45:38.263Z,79.62
2019-05-12T00:46:38.363Z,80.38
2019-05-12T00:47:38.630Z,79.55
2019-05-12T00:48:37.592Z,79.93
2019-05-12T00:49:37.880Z,79.93
2019-05-12T00:50:38.192Z,80.28
2019-05-12T00:51:38.197Z,80.48
2019-05-12T00:52:37.973Z,80.38
2019-05-12T00:53:42.706Z,80.69
2019-05-12T00:54:37.597Z,80.58
2019-05-12T00:55:38.046Z,81.10
2019-05-12T00:56:36.102Z,81.00
2019-05-12T00:57:38.101Z,81.14
2019-05-12T00:58:38.135Z,81.24
2019-05-12T00:59:38.153Z,81.66
2019-05-12T01:00:36.047Z,81.14
2019-05-12T01:01:38.093Z,81.86
2019-05-12T01:02:37.983Z,82.07
2019-05-12T01:03:38.067Z,82.31
2019-05-12T01:04:38.007Z,82.21
2019-05-12T01:05:38.027Z,82.38
2019-05-12T01:06:38.473Z,82.48
2019-05-12T01:07:38.063Z,82.00
2019-05-12T01:08:37.873Z,82.59
2019-05-12T01:09:35.932Z,81.96
2019-05-12T01:10:35.923Z,81.24
2019-05-12T01:11:37.921Z,81.66
2019-05-12T01:12:37.654Z,81.70
2019-05-12T01:13:38.145Z,81.86
2019-05-12T01:14:35.889Z,82.07
2019-05-12T01:15:37.836Z,81.56
2019-05-12T01:16:38.321Z,81.38
2019-05-12T01:17:35.891Z,81.14
2019-05-12T01:18:35.865Z,81.59
2019-05-12T01:19:37.465Z,81.66
2019-05-12T01:20:35.821Z,81.59
2019-05-12T01:21:37.702Z,81.49
2019-05-12T01:22:38.151Z,81.38
2019-05-12T01:23:35.782Z,81.28
2019-05-12T01:24:37.887Z,81.35
2019-05-12T01:25:35.762Z,81.45
2019-05-12T01:26:35.751Z,81.49
2019-05-12T01:27:37.945Z,81.28
2019-05-12T01:28:38.137Z,81.90
2019-05-12T01:29:35.716Z,82.62
2019-05-12T01:30:35.708Z,82.21
2019-05-12T01:31:37.786Z,82.62
2019-05-12T01:32:38.061Z,82.83
2019-05-12T01:33:37.971Z,82.62
2019-05-12T01:34:38.182Z,82.73
2019-05-12T01:35:38.417Z,83.25
2019-05-12T01:36:37.962Z,83.80
2019-05-12T01:37:38.114Z,83.45
2019-05-12T01:38:37.803Z,84.17
2019-05-12T01:39:37.892Z,83.86
2019-05-12T01:40:35.607Z,83.90
2019-05-12T01:41:35.588Z,83.49
2019-05-12T01:42:38.034Z,83.55
2019-05-12T01:43:35.562Z,84.07
2019-05-12T01:44:38.036Z,84.38
2019-05-12T01:45:37.844Z,83.97
2019-05-12T01:46:38.125Z,84.79
2019-05-12T01:47:38.047Z,84.17
2019-05-12T01:48:37.666Z,83.86
2019-05-12T01:49:38.098Z,84.17
2019-05-12T01:50:35.530Z,84.07
2019-05-12T01:51:35.485Z,83.97
2019-05-12T01:52:35.469Z,84.28
2019-05-12T01:53:37.642Z,83.97
2019-05-12T01:54:35.471Z,84.07
2019-05-12T01:55:35.432Z,84.48
2019-05-12T01:56:35.439Z,84.48
2019-05-12T01:57:35.414Z,83.97
2019-05-12T01:58:35.415Z,84.28
2019-05-12T01:59:35.391Z,84.79
2019-05-12T02:00:35.400Z,84.52
2019-05-12T02:01:35.370Z,83.34
2019-05-12T02:02:35.369Z,84.89
2019-05-12T02:03:37.526Z,84.28
2019-05-12T02:04:35.336Z,83.55
2019-05-12T02:05:35.343Z,83.55
2019-05-12T02:06:35.315Z,84.59
2019-05-12T02:07:35.307Z,83.97
2019-05-12T02:08:35.302Z,83.93
2019-05-12T02:09:35.288Z,83.83
2019-05-12T02:10:35.292Z,83.31
2019-05-12T02:11:35.263Z,84.13
2019-05-12T02:12:35.250Z,83.00
2019-05-12T02:13:35.239Z,83.93
2019-05-12T02:14:35.238Z,83.45
2019-05-12T02:15:38.060Z,83.31
2019-05-12T02:16:35.205Z,83.51
2019-05-12T02:17:35.242Z,83.51
2019-05-12T02:18:35.186Z,83.20
2019-05-12T02:19:35.176Z,84.23
2019-05-12T02:20:35.200Z,83.72
2019-05-12T02:21:35.153Z,83.62
2019-05-12T02:22:35.140Z,83.72
2019-05-12T02:23:35.133Z,83.93
2019-05-12T02:24:35.118Z,83.83
2019-05-12T02:25:35.106Z,83.83
2019-05-12T02:26:38.055Z,84.65
2019-05-12T02:27:35.087Z,84.23
2019-05-12T02:28:35.078Z,84.34
2019-05-12T02:29:35.067Z,83.93
2019-05-12T02:30:35.104Z,83.62
2019-05-12T02:31:35.071Z,83.83
2019-05-12T02:32:47.297Z,83.93
2019-05-12T02:33:36.034Z,83.83
2019-05-12T02:34:35.189Z,84.07
2019-05-12T02:35:35.664Z,83.62
2019-05-12T02:36:34.992Z,83.20
2019-05-12T02:37:35.904Z,83.51
2019-05-12T02:38:35.004Z,83.41
2019-05-12T02:39:35.383Z,84.03
2019-05-12T02:40:35.278Z,84.13
2019-05-12T02:41:34.945Z,83.20
2019-05-12T02:42:35.080Z,83.51
2019-05-12T02:43:34.968Z,84.23
2019-05-12T02:44:34.905Z,83.62
2019-05-12T02:45:36.019Z,83.51
2019-05-12T02:46:35.182Z,83.83
2019-05-12T02:47:34.974Z,84.03
2019-05-12T02:48:35.783Z,84.03
2019-05-12T02:49:35.037Z,83.93
2019-05-12T02:50:35.907Z,84.13
2019-05-12T02:51:35.382Z,83.83
2019-05-12T02:52:34.985Z,84.13
2019-05-12T02:53:35.299Z,84.03
2019-05-12T02:54:50.544Z,84.75
2019-05-12T02:55:36.089Z,84.96
2019-05-12T02:56:35.671Z,84.55
2019-05-12T02:57:34.769Z,84.44
2019-05-12T02:58:34.942Z,84.07
2019-05-12T02:59:34.978Z,84.55
2019-05-12T03:00:35.534Z,85.06
2019-05-12T03:01:34.879Z,85.00
2019-05-12T03:02:34.901Z,84.17
2019-05-12T03:03:35.336Z,85.06
2019-05-12T03:04:35.049Z,84.69
2019-05-12T03:05:35.100Z,85.00
2019-05-12T03:06:36.166Z,84.48
2019-05-12T03:07:34.832Z,85.52
2019-05-12T03:08:35.096Z,85.21
2019-05-12T03:09:35.347Z,83.45
2019-05-12T03:10:35.415Z,84.89
2019-05-12T03:11:35.470Z,84.07
2019-05-12T03:12:34.658Z,85.00
2019-05-12T03:13:34.822Z,83.45
2019-05-12T03:14:40.340Z,84.79
2019-05-12T03:15:37.346Z,84.03
2019-05-12T03:16:35.142Z,84.17
2019-05-12T03:17:35.480Z,84.38
2019-05-12T03:18:35.017Z,84.69
2019-05-12T03:19:34.703Z,84.89
2019-05-12T03:20:35.295Z,83.93
2019-05-12T03:21:35.596Z,84.89
2019-05-12T03:22:35.271Z,85.06
2019-05-12T03:23:35.343Z,85.00
2019-05-12T03:24:34.473Z,84.79
2019-05-12T03:25:35.603Z,84.28
2019-05-12T03:26:34.802Z,84.28
2019-05-12T03:27:35.162Z,84.89
2019-05-12T03:28:35.611Z,84.65
2019-05-12T03:29:34.643Z,84.96
2019-05-12T03:30:38.160Z,85.10
2019-05-12T03:31:39.657Z,83.83
2019-05-12T03:32:37.789Z,83.83
2019-05-12T03:33:42.686Z,83.93
2019-05-12T03:34:38.395Z,83.83
2019-05-12T03:35:41.577Z,85.17
2019-05-12T03:36:41.646Z,84.13
2019-05-12T03:37:35.495Z,84.96
2019-05-12T03:38:35.993Z,85.06
2019-05-12T03:39:34.500Z,85.27
2019-05-12T03:40:37.659Z,85.47
2019-05-12T03:41:34.905Z,84.13
2019-05-12T03:42:35.487Z,84.55
2019-05-12T03:43:35.098Z,84.23
2019-05-12T03:44:35.284Z,83.83
2019-05-12T03:45:35.931Z,83.93
2019-05-12T03:46:35.333Z,84.03
2019-05-12T03:47:35.520Z,84.55
2019-05-12T03:48:35.094Z,84.23
2019-05-12T03:49:34.860Z,84.34
2019-05-12T03:50:35.392Z,84.13
2019-05-12T03:51:35.109Z,84.96
2019-05-12T03:52:35.120Z,85.17
2019-05-12T03:53:35.228Z,85.06
2019-05-12T03:54:35.081Z,84.55
2019-05-12T03:55:38.085Z,85.06
2019-05-12T03:56:35.332Z,84.13
2019-05-12T03:57:34.719Z,84.69
2019-05-12T03:58:34.758Z,84.17
2019-05-12T03:59:34.987Z,84.28
2019-05-12T04:00:35.903Z,83.55
2019-05-12T04:01:36.275Z,85.06
2019-05-12T04:02:34.272Z,84.69
2019-05-12T04:03:34.666Z,84.23
2019-05-12T04:04:34.741Z,84.96
2019-05-12T04:05:35.147Z,84.69
2019-05-12T04:06:34.761Z,83.83
2019-05-12T04:07:34.668Z,84.17
2019-05-12T04:08:34.835Z,83.86
2019-05-12T04:09:34.825Z,84.89
2019-05-12T04:10:35.463Z,85.47
2019-05-12T04:11:35.738Z,85.41
2019-05-12T04:12:34.737Z,85.10
2019-05-12T04:13:34.322Z,85.06
2019-05-12T04:14:34.657Z,85.06
2019-05-12T04:15:35.010Z,85.47
2019-05-12T04:16:36.235Z,85.47
2019-05-12T04:17:34.922Z,84.89
2019-05-12T04:18:34.812Z,84.28
2019-05-12T04:19:34.695Z,83.76
2019-05-12T04:20:35.746Z,83.10
2019-05-12T04:21:35.067Z,83.62
2019-05-12T04:22:35.256Z,83.83
2019-05-12T04:23:34.892Z,83.72
2019-05-12T04:24:35.814Z,83.51
2019-05-12T04:25:47.739Z,84.03
2019-05-12T04:26:36.296Z,83.83
2019-05-12T04:27:34.850Z,83.93
2019-05-12T04:28:35.092Z,84.75
2019-05-12T04:29:34.883Z,84.86
2019-05-12T04:30:35.503Z,85.47
2019-05-12T04:31:34.811Z,85.06
2019-05-12T04:32:35.802Z,84.96
2019-05-12T04:33:34.672Z,84.96
2019-05-12T04:34:34.383Z,83.83
2019-05-12T04:35:35.147Z,83.48
2019-05-12T04:36:35.550Z,83.93
2019-05-12T04:37:35.242Z,84.92
2019-05-12T04:38:35.459Z,85.58
2019-05-12T04:39:34.194Z,83.78
2019-05-12T04:40:35.785Z,83.99
2019-05-12T04:41:35.368Z,84.20
2019-05-12T04:42:34.964Z,83.37
2019-05-12T04:43:35.283Z,83.78
2019-05-12T04:44:34.712Z,84.51
2019-05-12T04:45:34.589Z,84.92
2019-05-12T04:46:34.655Z,85.02
2019-05-12T04:47:34.923Z,84.81
2019-05-12T04:48:35.851Z,85.33
2019-05-12T04:49:34.582Z,85.33
2019-05-12T04:50:35.425Z,85.54
2019-05-12T04:51:34.935Z,85.54
2019-05-12T04:52:35.570Z,85.33
2019-05-12T04:53:35.221Z,84.81
2019-05-12T04:54:35.540Z,85.02
2019-05-12T04:55:35.539Z,85.13
2019-05-12T04:56:35.796Z,85.13
2019-05-12T04:57:34.659Z,85.33
2019-05-12T04:58:35.063Z,85.44
2019-05-12T04:59:34.508Z,84.27
2019-05-12T05:00:34.932Z,85.13
2019-05-12T05:01:34.610Z,85.02
2019-05-12T05:02:36.303Z,84.61
2019-05-12T05:03:34.990Z,83.64
2019-05-12T05:04:34.692Z,83.75
2019-05-12T05:05:35.311Z,83.78
2019-05-12T05:06:34.235Z,83.44
2019-05-12T05:07:35.927Z,83.03
2019-05-12T05:08:34.907Z,83.85
2019-05-12T05:09:35.022Z,83.13
2019-05-12T05:10:34.341Z,83.54
2019-05-12T05:11:34.564Z,83.33
2019-05-12T05:12:34.503Z,83.33
2019-05-12T05:13:36.877Z,83.75
2019-05-12T05:14:34.282Z,84.36
2019-05-12T05:15:34.703Z,84.36
2019-05-12T05:16:34.596Z,84.16
2019-05-12T05:17:34.760Z,83.44
2019-05-12T05:18:34.413Z,83.44
2019-05-12T05:19:33.818Z,83.54
2019-05-12T05:20:34.454Z,83.19
2019-05-12T05:21:34.452Z,83.81
2019-05-12T05:22:33.455Z,83.64
2019-05-12T05:23:33.578Z,84.01
2019-05-12T05:24:33.916Z,83.91
2019-05-12T05:25:34.092Z,84.33
2019-05-12T05:26:36.701Z,83.50
2019-05-12T05:27:34.018Z,83.19
2019-05-12T05:28:34.029Z,82.78
2019-05-12T05:29:33.612Z,83.50
2019-05-12T05:30:34.143Z,83.50
2019-05-12T05:31:33.829Z,84.22
2019-05-12T05:32:33.902Z,83.50
2019-05-12T05:33:34.049Z,83.29
2019-05-12T05:34:34.260Z,82.16
2019-05-12T05:35:35.166Z,82.06
2019-05-12T05:36:34.702Z,83.09
2019-05-12T05:37:37.029Z,83.40
2019-05-12T05:38:34.372Z,83.26
2019-05-12T05:39:35.685Z,83.67
2019-05-12T05:40:35.731Z,83.26
2019-05-12T05:41:34.505Z,83.81
2019-05-12T05:42:35.551Z,83.19
2019-05-12T05:43:33.381Z,83.98
2019-05-12T05:44:36.223Z,82.95
2019-05-12T05:45:35.141Z,83.05
2019-05-12T05:46:33.596Z,83.47
2019-05-12T05:47:33.616Z,83.77
2019-05-12T05:48:35.082Z,83.67
2019-05-12T05:49:34.085Z,83.05
2019-05-12T05:50:34.338Z,83.36
2019-05-12T05:51:33.434Z,83.26
2019-05-12T05:52:38.373Z,83.77
2019-05-12T05:53:33.850Z,82.84
2019-05-12T05:54:35.806Z,82.74
2019-05-12T05:55:34.300Z,82.43
2019-05-12T05:56:41.767Z,84.08
2019-05-12T05:57:33.807Z,84.49
2019-05-12T05:58:33.921Z,83.53
2019-05-12T05:59:36.539Z,81.67
2019-05-12T06:00:35.152Z,82.50
2019-05-12T06:01:34.797Z,81.57
2019-05-12T06:02:40.179Z,81.88
2019-05-12T06:03:33.978Z,82.19
2019-05-12T06:04:34.196Z,82.29
2019-05-12T06:05:34.636Z,81.57
2019-05-12T06:06:34.189Z,81.98
2019-05-12T06:07:37.433Z,81.67
2019-05-12T06:08:33.890Z,81.16
2019-05-12T06:09:33.929Z,81.43
2019-05-12T06:10:36.247Z,80.61
2019-05-12T06:11:34.498Z,81.43
2019-05-12T06:12:33.513Z,81.63
2019-05-12T06:13:34.539Z,81.43
2019-05-12T06:14:34.197Z,81.23
2019-05-12T06:15:35.728Z,80.30
2019-05-12T06:16:34.182Z,80.02
2019-05-12T06:17:34.123Z,80.30
2019-05-12T06:18:33.459Z,81.12
2019-05-12T06:19:34.233Z,81.53
2019-05-12T06:20:37.491Z,81.53
2019-05-12T06:21:38.068Z,81.02
2019-05-12T06:22:34.309Z,81.09
2019-05-12T06:23:34.823Z,80.81
2019-05-12T06:24:33.590Z,79.37
2019-05-12T06:25:44.994Z,80.88
2019-05-12T06:26:35.831Z,80.98
2019-05-12T06:27:33.659Z,79.23
2019-05-12T06:28:39.422Z,79.44
2019-05-12T06:29:33.475Z,79.54
2019-05-12T06:30:37.559Z,80.05
2019-05-12T06:31:33.636Z,80.43
2019-05-12T06:32:33.630Z,79.54
2019-05-12T06:33:36.116Z,79.13
2019-05-12T06:34:34.290Z,78.92
2019-05-12T06:35:39.999Z,80.02
2019-05-12T06:36:34.153Z,79.81
2019-05-12T06:37:33.856Z,80.02
2019-05-12T06:38:38.690Z,80.53
2019-05-12T06:39:34.370Z,80.33
2019-05-12T06:40:40.424Z,78.58
2019-05-12T06:41:33.852Z,78.27
2019-05-12T06:42:34.159Z,78.68
2019-05-12T06:43:35.274Z,78.78
2019-05-12T06:44:33.531Z,78.47
2019-05-12T06:45:34.088Z,78.78
2019-05-12T06:46:34.243Z,78.54
2019-05-12T06:47:34.367Z,78.03
2019-05-12T06:48:33.216Z,78.89
2019-05-12T06:49:33.681Z,79.36
2019-05-12T06:50:36.868Z,79.26
2019-05-12T06:51:33.900Z,79.26
2019-05-12T06:52:33.742Z,78.54
2019-05-12T06:53:33.663Z,78.64
2019-05-12T06:54:33.561Z,78.20
2019-05-12T06:55:34.340Z,77.72
2019-05-12T06:56:34.256Z,78.75
2019-05-12T06:57:34.106Z,78.40
2019-05-12T06:58:34.393Z,78.09
2019-05-12T06:59:33.860Z,78.57
2019-05-12T07:00:34.745Z,77.75
2019-05-12T07:01:33.437Z,76.72
2019-05-12T07:02:37.182Z,75.29
2019-05-12T07:03:37.048Z,76.58
2019-05-12T07:04:33.897Z,77.81
2019-05-12T07:05:33.800Z,76.07
2019-05-12T07:06:33.883Z,76.04
2019-05-12T07:07:33.454Z,76.75
2019-05-12T07:08:38.267Z,74.87
2019-05-12T07:09:35.356Z,75.08
2019-05-12T07:10:41.681Z,75.18
2019-05-12T07:11:44.570Z,74.57
2019-05-12T07:12:43.482Z,73.61
2019-05-12T07:13:34.231Z,72.78
2019-05-12T07:14:34.362Z,72.07
2019-05-12T07:15:35.712Z,72.58
2019-05-12T07:16:34.083Z,73.50
2019-05-12T07:17:35.658Z,73.16
2019-05-12T07:18:36.960Z,73.16
2019-05-12T07:19:33.744Z,71.39
2019-05-12T07:20:37.141Z,72.82
2019-05-12T07:21:33.512Z,70.67
2019-05-12T07:22:43.696Z,71.04
2019-05-12T07:23:33.758Z,71.39
2019-05-12T07:24:34.053Z,70.53
2019-05-12T07:25:36.367Z,68.90
2019-05-12T07:26:33.785Z,69.51
2019-05-12T07:27:36.586Z,71.97
2019-05-12T07:28:36.351Z,71.32
2019-05-12T07:29:34.345Z,69.89
2019-05-12T07:30:34.829Z,69.68
2019-05-12T07:31:33.709Z,69.07
2019-05-12T07:32:34.263Z,66.48
2019-05-12T07:33:35.236Z,65.36
2019-05-12T07:34:33.385Z,63.00
2019-05-12T07:35:33.809Z,65.22
2019-05-12T07:36:33.332Z,62.80
2019-05-12T07:37:33.638Z,60.93
2019-05-12T07:38:33.825Z,62.16
2019-05-12T07:39:37.019Z,63.79
2019-05-12T07:40:37.258Z,64.30
2019-05-12T07:41:34.032Z,62.98
2019-05-12T07:42:38.923Z,63.72
2019-05-12T07:43:33.774Z,61.88
2019-05-12T07:44:39.734Z,59.76
2019-05-12T07:45:34.018Z,62.83
2019-05-12T07:46:34.068Z,62.83
2019-05-12T07:47:33.140Z,61.22
2019-05-12T07:48:33.415Z,61.73
2019-05-12T07:49:35.224Z,61.63
2019-05-12T07:50:34.495Z,63.06
2019-05-12T07:51:38.354Z,64.01
2019-05-12T07:52:33.772Z,63.20
2019-05-12T07:53:33.750Z,64.01
2019-05-12T07:54:35.365Z,64.42
2019-05-12T07:55:34.149Z,64.73
2019-05-12T07:56:33.526Z,65.55
2019-05-12T07:57:34.551Z,65.86
2019-05-12T07:58:33.326Z,66.30
2019-05-12T07:59:38.858Z,64.12
2019-05-12T08:00:33.937Z,64.86
2019-05-12T08:01:35.818Z,66.09
2019-05-12T08:02:35.524Z,65.99
2019-05-12T08:03:31.450Z,67.73
2019-05-12T08:04:39.565Z,66.71
2019-05-12T08:05:33.818Z,67.63
2019-05-12T08:06:34.713Z,66.40
2019-05-12T08:07:33.733Z,64.76
2019-05-12T08:08:31.399Z,66.09
2019-05-12T08:09:33.195Z,67.52
2019-05-12T08:10:31.406Z,67.90
2019-05-12T08:11:34.705Z,66.57
2019-05-12T08:12:34.034Z,68.93
2019-05-12T08:13:36.526Z,68.49
2019-05-12T08:14:33.144Z,66.03
2019-05-12T08:15:33.736Z,67.74
2019-05-12T08:16:36.179Z,68.22
2019-05-12T08:17:33.717Z,65.77
2019-05-12T08:18:36.986Z,65.84
2019-05-12T08:19:33.791Z,66.45
2019-05-12T08:20:31.294Z,63.45
2019-05-12T08:21:34.729Z,63.04
2019-05-12T08:22:34.535Z,62.43
2019-05-12T08:23:31.234Z,60.80
2019-05-12T08:24:35.399Z,58.58
2019-05-12T08:25:34.295Z,61.03
2019-05-12T08:26:33.354Z,61.24
2019-05-12T08:27:31.191Z,60.93
2019-05-12T08:28:36.207Z,60.21
2019-05-12T08:29:34.164Z,61.03
2019-05-12T08:30:33.099Z,60.96
2019-05-12T08:31:32.622Z,60.11
2019-05-12T08:32:33.858Z,62.66
2019-05-12T08:33:31.141Z,60.83
2019-05-12T08:34:31.132Z,59.80
2019-05-12T08:35:35.144Z,60.11
2019-05-12T08:36:33.417Z,59.83
2019-05-12T08:37:33.269Z,61.95
2019-05-12T08:38:31.072Z,62.26
2019-05-12T08:39:33.587Z,60.62
2019-05-12T08:40:31.063Z,61.00
2019-05-12T08:41:31.043Z,60.60
2019-05-12T08:42:31.049Z,59.47
2019-05-12T08:43:31.019Z,61.00
2019-05-12T08:44:40.424Z,59.57
2019-05-12T08:45:37.022Z,59.09
2019-05-12T08:46:34.186Z,60.01
2019-05-12T08:47:35.595Z,58.27
2019-05-12T08:48:34.154Z,58.65
2019-05-12T08:49:35.824Z,62.95
2019-05-12T08:50:35.791Z,61.00
2019-05-12T08:51:30.936Z,61.08
2019-05-12T08:52:37.304Z,61.08
2019-05-12T08:53:33.659Z,59.75
2019-05-12T08:54:30.900Z,57.37
2019-05-12T08:55:31.281Z,60.53
2019-05-12T08:56:33.106Z,59.59
2019-05-12T08:57:34.858Z,57.34
2019-05-12T08:58:46.543Z,59.08
2019-05-12T08:59:34.037Z,57.34
2019-05-12T09:00:30.834Z,59.28
2019-05-12T09:01:30.983Z,60.69
2019-05-12T09:02:30.815Z,56.02
2019-05-12T09:03:33.574Z,58.16
2019-05-12T09:04:30.793Z,57.55
2019-05-12T09:05:34.314Z,57.14
2019-05-12T09:06:34.166Z,57.55
2019-05-12T09:07:35.969Z,57.75
2019-05-12T09:08:37.885Z,58.37
2019-05-12T09:09:33.650Z,59.26
2019-05-12T09:10:30.736Z,58.44
2019-05-12T09:11:30.715Z,55.99
2019-05-12T09:12:30.712Z,57.39
2019-05-12T09:13:30.704Z,58.31
2019-05-12T09:14:33.544Z,56.17
2019-05-12T09:15:31.674Z,54.24
2019-05-12T09:16:30.670Z,53.52
2019-05-12T09:17:30.653Z,56.78
2019-05-12T09:18:35.236Z,57.47
2019-05-12T09:19:33.185Z,55.91
2019-05-12T09:20:30.635Z,54.49
2019-05-12T09:21:34.377Z,54.16
2019-05-12T09:22:31.601Z,55.05
2019-05-12T09:23:32.785Z,53.32
2019-05-12T09:24:33.354Z,55.05
2019-05-12T09:25:30.568Z,55.25
2019-05-12T09:26:30.557Z,53.19
2019-05-12T09:27:30.555Z,53.50
2019-05-12T09:28:44.416Z,52.98
2019-05-12T09:29:31.525Z,52.98
2019-05-12T09:30:30.513Z,54.11
2019-05-12T09:31:30.503Z,53.29
2019-05-12T09:32:30.490Z,53.17
2019-05-12T09:33:34.111Z,51.75
2019-05-12T09:34:30.471Z,51.44
2019-05-12T09:35:35.116Z,53.88
2019-05-12T09:36:33.641Z,48.19
2019-05-12T09:37:30.897Z,48.57
2019-05-12T09:38:33.230Z,51.92
2019-05-12T09:39:36.436Z,51.72
2019-05-12T09:40:31.441Z,48.59
2019-05-12T09:41:35.990Z,50.12
2019-05-12T09:42:33.022Z,47.88
2019-05-12T09:43:30.372Z,53.17
2019-05-12T09:44:30.691Z,48.08
2019-05-12T09:45:30.352Z,48.49
2019-05-12T09:46:34.234Z,51.75
2019-05-12T09:47:31.332Z,51.72
2019-05-12T09:48:30.319Z,55.78
2019-05-12T09:49:32.136Z,49.28
2019-05-12T09:50:31.294Z,52.12
2019-05-12T09:51:35.219Z,51.72
2019-05-12T09:52:32.965Z,53.04
2019-05-12T09:53:30.276Z,51.51
2019-05-12T09:54:35.378Z,53.63
2019-05-12T09:55:31.264Z,54.13
2019-05-12T09:56:30.230Z,54.00
2019-05-12T09:57:32.466Z,52.46
2019-05-12T09:58:33.618Z,50.43
2019-05-12T09:59:30.214Z,51.54
2019-05-12T10:00:35.205Z,51.67
2019-05-12T10:01:37.294Z,51.67
2019-05-12T10:02:31.167Z,49.64
2019-05-12T10:03:30.897Z,53.39
2019-05-12T10:04:33.090Z,50.04
2019-05-12T10:05:30.564Z,51.59
2019-05-12T10:06:33.773Z,51.49
2019-05-12T10:07:30.112Z,55.05
2019-05-12T10:08:35.892Z,53.80
2019-05-12T10:09:33.433Z,52.38
2019-05-12T10:10:38.118Z,51.34
2019-05-12T10:11:31.070Z,48.42
2019-05-12T10:12:35.268Z,49.01
2019-05-12T10:13:31.048Z,50.56
2019-05-12T10:14:30.042Z,53.37
2019-05-12T10:15:30.030Z,51.62
2019-05-12T10:16:30.055Z,52.33
2019-05-12T10:17:30.436Z,48.38
2019-05-12T10:18:29.994Z,53.22
2019-05-12T10:19:29.983Z,51.72
2019-05-12T10:20:35.259Z,53.14
2019-05-12T10:21:31.003Z,53.34
2019-05-12T10:22:34.660Z,52.23
2019-05-12T10:23:30.941Z,52.97
2019-05-12T10:24:32.744Z,52.76
2019-05-12T10:25:30.924Z,51.65
2019-05-12T10:26:29.908Z,53.09
2019-05-12T10:27:32.044Z,52.89
2019-05-12T10:28:29.893Z,49.23
2019-05-12T10:29:30.980Z,51.67
2019-05-12T10:30:29.871Z,48.63
2019-05-12T10:31:34.817Z,50.35
2019-05-12T10:32:30.869Z,50.12
2019-05-12T10:33:29.832Z,50.02
2019-05-12T10:34:38.109Z,51.01
2019-05-12T10:35:30.869Z,49.19
2019-05-12T10:36:39.058Z,48.48
2019-05-12T10:37:30.813Z,47.24
2019-05-12T10:38:29.782Z,49.67
2019-05-12T10:39:29.770Z,47.54
2019-05-12T10:40:29.765Z,47.95
2019-05-12T10:41:29.758Z,49.37
2019-05-12T10:42:29.933Z,48.76
2019-05-12T10:43:29.747Z,49.67
2019-05-12T10:44:35.579Z,46.02
2019-05-12T10:45:30.716Z,45.90
2019-05-12T10:46:29.697Z,47.34
2019-05-12T10:47:29.711Z,47.54
2019-05-12T10:48:29.693Z,45.51
2019-05-12T10:49:29.711Z,48.15
2019-05-12T10:50:29.655Z,45.79
2019-05-12T10:51:29.664Z,45.79
2019-05-12T10:52:34.291Z,47.22
2019-05-12T10:53:30.622Z,46.71
2019-05-12T10:54:29.607Z,44.07
2019-05-12T10:55:29.604Z,43.26
2019-05-12T10:56:29.652Z,46.41
2019-05-12T10:57:29.582Z,48.00
2019-05-12T10:58:29.589Z,46.28
2019-05-12T10:59:33.217Z,45.78
2019-05-12T11:00:29.580Z,49.60
2019-05-12T11:01:29.528Z,45.35
2019-05-12T11:02:30.637Z,45.25
2019-05-12T11:03:29.609Z,43.37
2019-05-12T11:04:36.922Z,45.57
2019-05-12T11:05:30.524Z,45.07
2019-05-12T11:06:29.487Z,49.73
2019-05-12T11:07:30.031Z,46.28
2019-05-12T11:08:29.482Z,43.75
2019-05-12T11:09:31.641Z,47.90
2019-05-12T11:10:29.437Z,48.00
2019-05-12T11:11:32.929Z,46.51
2019-05-12T11:12:30.415Z,47.02
2019-05-12T11:13:29.410Z,50.56
2019-05-12T11:14:30.579Z,50.35
2019-05-12T11:15:29.376Z,50.34
2019-05-12T11:16:30.919Z,48.33
2019-05-12T11:17:29.388Z,47.70
2019-05-12T11:18:30.591Z,49.14
2019-05-12T11:19:29.342Z,50.23
2019-05-12T11:20:29.352Z,48.11
2019-05-12T11:21:29.312Z,47.09
2019-05-12T11:22:29.321Z,45.07
2019-05-12T11:23:29.416Z,46.59
2019-05-12T11:24:29.281Z,46.48
2019-05-12T11:25:29.292Z,47.70
2019-05-12T11:26:29.265Z,53.07
2019-05-12T11:27:29.247Z,43.95
2019-05-12T11:28:29.238Z,45.07
2019-05-12T11:29:41.715Z,45.75
2019-05-12T11:30:30.212Z,45.04
2019-05-12T11:31:29.201Z,46.06
2019-05-12T11:32:34.689Z,50.41
2019-05-12T11:33:30.184Z,44.84
2019-05-12T11:34:29.186Z,44.84
2019-05-12T11:35:29.186Z,47.78
2019-05-12T11:36:29.186Z,49.40
2019-05-12T11:37:29.194Z,51.50
2019-05-12T11:38:29.129Z,44.82
2019-05-12T11:39:30.556Z,43.51
2019-05-12T11:40:30.137Z,43.71
2019-05-12T11:41:29.096Z,44.62
2019-05-12T11:42:29.090Z,44.92
2019-05-12T11:43:29.892Z,42.90
2019-05-12T11:44:29.063Z,45.03
2019-05-12T11:45:29.091Z,43.30
2019-05-12T11:46:29.052Z,44.92
2019-05-12T11:47:29.054Z,41.36
2019-05-12T11:48:29.015Z,45.83
2019-05-12T11:49:29.003Z,42.09
2019-05-12T11:50:29.137Z,43.52
2019-05-12T11:51:30.553Z,47.47
2019-05-12T11:52:28.977Z,41.52
2019-05-12T11:53:31.007Z,44.36
2019-05-12T11:54:41.146Z,46.18
2019-05-12T11:55:31.711Z,44.03
2019-05-12T11:56:28.949Z,45.63
2019-05-12T11:57:30.418Z,43.91
2019-05-12T11:58:28.912Z,44.42
2019-05-12T11:59:28.903Z,47.15
2019-05-12T12:00:28.904Z,45.71
2019-05-12T12:01:28.894Z,43.91
2019-05-12T12:02:30.662Z,49.17
2019-05-12T12:03:28.875Z,45.86
2019-05-12T12:04:28.853Z,49.68
2019-05-12T12:05:28.833Z,45.35
2019-05-12T12:06:28.878Z,46.87
2019-05-12T12:07:28.835Z,46.14
2019-05-12T12:08:35.258Z,44.74
2019-05-12T12:10:20.601Z,46.08
2019-05-12T12:11:25.569Z,44.87
2019-05-12T12:12:28.166Z,45.17
2019-05-12T12:13:25.712Z,44.78
2019-05-12T12:15:30.536Z,45.87
2019-05-12T12:16:41.982Z,47.58
2019-05-12T12:17:33.582Z,45.27
2019-05-12T12:18:39.255Z,42.31
2019-05-12T12:19:34.927Z,42.33
2019-05-12T12:20:33.525Z,42.25
2019-05-12T12:21:40.387Z,45.78
2019-05-12T12:22:31.232Z,50.94
2019-05-12T12:23:30.254Z,44.95
2019-05-12T12:24:31.628Z,45.65
2019-05-12T12:25:30.246Z,44.92
2019-05-12T12:26:31.618Z,44.52
2019-05-12T12:27:30.279Z,43.81
2019-05-12T12:28:30.180Z,46.64
2019-05-12T12:29:30.155Z,44.13
2019-05-12T12:30:30.176Z,43.44
2019-05-12T12:31:35.588Z,44.76
2019-05-12T12:33:41.001Z,41.12
2019-05-12T12:34:47.522Z,41.64
2019-05-12T12:35:39.854Z,42.66
2019-05-12T12:36:47.402Z,43.37
2019-05-12T12:37:39.815Z,49.85
2019-05-12T12:38:47.358Z,44.36
2019-05-12T12:39:39.930Z,46.59
2019-05-12T12:40:47.420Z,48.11
2019-05-12T12:41:44.157Z,45.87
2019-05-12T12:43:49.508Z,44.96
2019-05-12T12:44:53.464Z,44.46
2019-05-12T12:47:01.560Z,49.32
2019-05-12T12:47:59.184Z,47.09
2019-05-12T12:49:10.416Z,44.96
2019-05-12T12:49:59.288Z,46.26
2019-05-12T12:51:07.730Z,47.58
2019-05-12T12:51:59.139Z,48.28
2019-05-12T12:52:59.222Z,42.74
2019-05-12T12:53:59.188Z,43.57
2019-05-12T12:55:03.946Z,45.19
2019-05-12T12:56:00.191Z,45.19
2019-05-12T12:57:03.450Z,47.52
2019-05-12T12:58:00.171Z,47.50